createdAt,value
2018-05-02T00:00:53.651Z,7.6
2018-05-02T00:01:52.851Z,7.6
2018-05-02T00:02:52.058Z,7.6
2018-05-02T00:03:51.281Z,7.6
2018-05-02T00:04:49.991Z,7.5
2018-05-02T00:05:49.298Z,7.4
2018-05-02T00:06:48.501Z,7.4
2018-05-02T00:07:47.608Z,7.4
2018-05-02T00:08:46.816Z,7.4
2018-05-02T00:09:45.822Z,7.3
2018-05-02T00:10:45.139Z,7.3
2018-05-02T00:11:44.057Z,7.4
2018-05-02T00:12:43.483Z,7.4
2018-05-02T00:13:42.209Z,7.4
2018-05-02T00:14:41.315Z,7.3
2018-05-02T00:15:40.744Z,7.3
2018-05-02T00:16:40.060Z,7.2
2018-05-02T00:17:38.763Z,7.2
2018-05-02T00:18:37.969Z,7.1
2018-05-02T00:19:37.405Z,7.1
2018-05-02T00:20:36.321Z,7.1
2018-05-02T00:21:35.314Z,7
2018-05-02T00:22:34.521Z,7
2018-05-02T00:23:33.967Z,7
2018-05-02T00:24:32.786Z,7
2018-05-02T00:25:32.102Z,6.9
2018-05-02T00:27:30.305Z,6.9
2018-05-02T00:28:29.236Z,6.9
2018-05-02T00:29:28.662Z,6.8
2018-05-02T00:30:27.586Z,6.8
2018-05-02T00:31:26.909Z,6.8
2018-05-02T00:32:25.831Z,6.8
2018-05-02T00:33:25.040Z,6.7
2018-05-02T00:34:24.248Z,6.7
2018-05-02T00:35:23.059Z,6.7
2018-05-02T00:36:22.367Z,6.7
2018-05-02T00:37:21.190Z,6.6
2018-05-02T00:38:20.283Z,6.6
2018-05-02T00:39:19.603Z,6.6
2018-05-02T00:40:19.037Z,6.6
2018-05-02T00:41:17.744Z,6.6
2018-05-02T00:41:48.261Z,6.6
2018-05-02T00:42:18.884Z,6.5
2018-05-02T00:43:16.199Z,6.5
2018-05-02T00:44:14.920Z,6.6
2018-05-02T00:48:11.902Z,6.4
2018-05-02T00:49:10.614Z,6.4
2018-05-02T00:52:08.095Z,6.4
2018-05-02T00:53:07.418Z,6.3
2018-05-02T00:54:06.239Z,6.3
2018-05-02T00:55:05.453Z,6.3
2018-05-02T00:56:04.554Z,6.3
2018-05-02T00:58:02.429Z,6.3
2018-05-02T00:59:02.043Z,6.3
2018-05-02T01:00:01.142Z,6.3
2018-05-02T01:00:59.848Z,6.3
2018-05-02T01:01:59.239Z,6.3
2018-05-02T01:02:58.559Z,6.3
2018-05-02T01:04:56.758Z,6.3
2018-05-02T01:08:53.232Z,6.2
2018-05-02T01:09:51.842Z,6.2
2018-05-02T01:11:50.440Z,6.1
2018-05-02T01:12:49.772Z,6.1
2018-05-02T01:13:48.589Z,6.1
2018-05-02T01:14:47.799Z,6.1
2018-05-02T01:17:44.946Z,6.1
2018-05-02T01:18:44.154Z,6.1
2018-05-02T01:19:43.642Z,6.1
2018-05-02T01:20:42.468Z,6.1
2018-05-02T01:21:41.588Z,6.1
2018-05-02T01:22:12.105Z,6.1
2018-05-02T01:22:42.623Z,6.1
2018-05-02T01:23:13.356Z,6.1
2018-05-02T01:24:38.737Z,6.1
2018-05-02T01:25:37.848Z,6.1
2018-05-02T01:26:37.275Z,6.1
2018-05-02T01:27:36.028Z,6
2018-05-02T01:28:35.345Z,6
2018-05-02T01:30:33.427Z,5.9
2018-05-02T01:31:32.752Z,5.9
2018-05-02T01:32:31.456Z,5.9
2018-05-02T01:33:01.873Z,5.9
2018-05-02T01:33:32.300Z,5.8
2018-05-02T01:34:02.843Z,5.8
2018-05-02T01:35:28.840Z,5.8
2018-05-02T01:36:27.948Z,5.8
2018-05-02T01:37:27.274Z,5.8
2018-05-02T01:38:26.099Z,5.7
2018-05-02T01:39:25.325Z,5.7
2018-05-02T01:41:23.431Z,5.7
2018-05-02T01:42:22.533Z,5.7
2018-05-02T01:43:21.959Z,5.7
2018-05-02T01:45:20.256Z,5.6
2018-05-02T01:46:19.064Z,5.6
2018-05-02T01:47:18.381Z,5.6
2018-05-02T01:50:15.462Z,5.6
2018-05-02T01:51:14.777Z,5.5
2018-05-02T01:52:13.492Z,5.5
2018-05-02T01:53:12.810Z,5.5
2018-05-02T01:54:11.736Z,5.5
2018-05-02T01:55:11.046Z,5.5
2018-05-02T01:56:09.959Z,5.5
2018-05-02T01:57:09.279Z,5.5
2018-05-02T01:58:08.490Z,5.5
2018-05-02T01:59:07.305Z,5.4
2018-05-02T02:00:06.641Z,5.4
2018-05-02T02:01:05.463Z,5.4
2018-05-02T02:03:03.445Z,5.4
2018-05-02T02:03:33.967Z,5.4
2018-05-02T02:05:01.894Z,5.4
2018-05-02T02:06:01.203Z,5.4
2018-05-02T02:07:00.019Z,5.3
2018-05-02T02:07:59.443Z,5.3
2018-05-02T02:08:58.253Z,5.3
2018-05-02T02:09:57.566Z,5.3
2018-05-02T02:10:56.056Z,5.3
2018-05-02T02:11:55.370Z,5.3
2018-05-02T02:12:54.471Z,5.3
2018-05-02T02:13:53.677Z,5.3
2018-05-02T02:14:52.895Z,5.3
2018-05-02T02:15:52.243Z,5.3
2018-05-02T02:16:50.965Z,5.3
2018-05-02T02:17:50.315Z,5.3
2018-05-02T02:18:49.044Z,5.3
2018-05-02T02:19:48.375Z,5.3
2018-05-02T02:21:46.378Z,5.3
2018-05-02T02:22:45.711Z,5.3
2018-05-02T02:23:44.552Z,5.3
2018-05-02T02:24:43.786Z,5.3
2018-05-02T02:26:41.900Z,5.3
2018-05-02T02:27:41.240Z,5.3
2018-05-02T02:28:39.961Z,5.3
2018-05-02T02:29:39.300Z,5.3
2018-05-02T02:30:38.132Z,5.3
2018-05-02T02:31:37.491Z,5.2
2018-05-02T02:32:36.232Z,5.2
2018-05-02T02:34:35.061Z,5.2
2018-05-02T02:36:32.892Z,5.2
2018-05-02T02:37:31.909Z,5.2
2018-05-02T02:38:31.027Z,5.2
2018-05-02T02:39:30.502Z,5.2
2018-05-02T02:40:29.452Z,5.2
2018-05-02T02:41:28.395Z,5.2
2018-05-02T02:42:27.252Z,5.2
2018-05-02T02:43:26.699Z,5.2
2018-05-02T02:44:25.556Z,5.2
2018-05-02T02:45:24.888Z,5.2
2018-05-02T02:46:23.722Z,5.2
2018-05-02T02:47:23.242Z,5.2
2018-05-02T02:48:21.977Z,5.2
2018-05-02T02:49:21.424Z,5.2
2018-05-02T02:50:20.373Z,5.2
2018-05-02T02:51:19.210Z,5.2
2018-05-02T02:53:17.319Z,5.3
2018-05-02T02:54:16.437Z,5.3
2018-05-02T02:55:16.054Z,5.3
2018-05-02T02:56:14.869Z,5.4
2018-05-02T02:57:13.600Z,5.4
2018-05-02T02:57:44.257Z,5.4
2018-05-02T03:00:11.061Z,5.5
2018-05-02T03:02:09.402Z,5.6
2018-05-02T03:03:08.360Z,5.6
2018-05-02T03:04:07.682Z,5.6
2018-05-02T03:05:06.639Z,5.6
2018-05-02T03:06:05.505Z,5.7
2018-05-02T03:07:04.848Z,5.7
2018-05-02T03:07:35.278Z,5.7
2018-05-02T03:08:05.830Z,5.7
2018-05-02T03:08:36.481Z,5.7
2018-05-02T03:09:06.936Z,5.7
2018-05-02T03:09:37.588Z,5.7
2018-05-02T03:11:00.971Z,5.8
2018-05-02T03:12:58.978Z,5.9
2018-05-02T03:13:58.206Z,5.9
2018-05-02T03:14:57.429Z,5.9
2018-05-02T03:15:56.387Z,6
2018-05-02T03:16:55.721Z,6
2018-05-02T03:17:54.554Z,6
2018-05-02T03:18:54.017Z,6
2018-05-02T03:19:52.843Z,6
2018-05-02T03:20:51.750Z,6.1
2018-05-02T03:21:51.197Z,6.1
2018-05-02T03:22:49.917Z,6.1
2018-05-02T03:23:49.150Z,6.1
2018-05-02T03:24:48.493Z,6.1
2018-05-02T03:25:47.333Z,6.1
2018-05-02T03:27:45.338Z,6.1
2018-05-02T03:28:44.562Z,6.2
2018-05-02T03:29:43.802Z,6.2
2018-05-02T03:30:42.639Z,6.2
2018-05-02T03:31:42.081Z,6.2
2018-05-02T03:32:40.943Z,6.2
2018-05-02T03:33:40.279Z,6.2
2018-05-02T03:34:38.892Z,6.2
2018-05-02T03:35:38.226Z,6.2
2018-05-02T03:36:37.556Z,6.3
2018-05-02T03:38:35.555Z,6.3
2018-05-02T03:39:34.889Z,6.3
2018-05-02T03:40:33.507Z,6.3
2018-05-02T03:41:32.831Z,6.3
2018-05-02T03:42:32.160Z,6.3
2018-05-02T03:43:30.890Z,6.3
2018-05-02T03:44:30.118Z,6.3
2018-05-02T03:45:29.446Z,6.3
2018-05-02T03:46:28.169Z,6.3
2018-05-02T03:46:58.715Z,6.3
2018-05-02T03:48:26.733Z,6.3
2018-05-02T03:48:57.261Z,6.3
2018-05-02T03:51:23.765Z,6.2
2018-05-02T03:52:22.883Z,6.1
2018-05-02T03:55:20.272Z,6
2018-05-02T03:56:18.997Z,6
2018-05-02T03:57:18.340Z,5.9
2018-05-02T03:58:17.560Z,5.9
2018-05-02T03:58:48.207Z,5.9
2018-05-02T03:59:18.754Z,5.9
2018-05-02T03:59:49.404Z,5.9
2018-05-02T04:01:15.014Z,5.9
2018-05-02T04:02:13.964Z,5.9
2018-05-02T04:03:12.795Z,5.9
2018-05-02T04:04:12.014Z,5.9
2018-05-02T04:05:11.254Z,5.9
2018-05-02T04:06:09.971Z,5.9
2018-05-02T04:07:09.198Z,5.8
2018-05-02T04:08:08.644Z,5.8
2018-05-02T04:09:07.578Z,5.8
2018-05-02T04:11:05.576Z,5.8
2018-05-02T04:12:04.796Z,5.8
2018-05-02T04:13:04.137Z,5.8
2018-05-02T04:14:02.775Z,5.8
2018-05-02T04:15:02.121Z,5.8
2018-05-02T04:17:00.235Z,5.8
2018-05-02T04:17:59.684Z,5.8
2018-05-02T04:18:58.406Z,5.8
2018-05-02T04:19:57.738Z,5.8
2018-05-02T04:20:56.569Z,5.8
2018-05-02T04:21:55.896Z,5.8
2018-05-02T04:22:54.630Z,5.8
2018-05-02T04:23:53.829Z,5.8
2018-05-02T04:26:50.930Z,5.9
2018-05-02T04:27:50.269Z,5.9
2018-05-02T04:28:49.600Z,5.9
2018-05-02T04:29:48.332Z,5.9
2018-05-02T04:30:47.664Z,5.9
2018-05-02T04:31:46.385Z,5.9
2018-05-02T04:32:45.685Z,5.9
2018-05-02T04:34:43.689Z,6
2018-05-02T04:35:43.017Z,6
2018-05-02T04:36:42.237Z,6
2018-05-02T04:37:41.060Z,6
2018-05-02T04:38:40.186Z,6
2018-05-02T04:39:39.519Z,6
2018-05-02T04:41:37.522Z,6.1
2018-05-02T04:42:36.764Z,6.1
2018-05-02T04:44:34.873Z,6.1
2018-05-02T04:45:33.706Z,6.1
2018-05-02T04:46:33.036Z,6.1
2018-05-02T04:49:30.530Z,6.2
2018-05-02T04:50:29.478Z,6.2
2018-05-02T04:51:28.596Z,6.2
2018-05-02T04:52:27.313Z,6.1
2018-05-02T04:53:26.648Z,6.2
2018-05-02T04:54:25.914Z,6.2
2018-05-02T04:56:24.034Z,6.2
2018-05-02T04:57:22.861Z,6.2
2018-05-02T04:58:22.317Z,6.3
2018-05-02T04:59:21.045Z,6.3
2018-05-02T05:00:20.486Z,6.3
2018-05-02T05:01:19.324Z,6.2
2018-05-02T05:02:18.330Z,6.3
2018-05-02T05:04:16.548Z,6.3
2018-05-02T05:05:15.772Z,6.3
2018-05-02T05:07:13.884Z,6.4
2018-05-02T05:10:11.273Z,6.4
2018-05-02T05:11:10.707Z,6.4
2018-05-02T05:13:08.327Z,6.5
2018-05-02T05:16:06.087Z,6.6
2018-05-02T05:17:04.866Z,6.6
2018-05-02T05:20:02.480Z,6.6
2018-05-02T05:21:01.312Z,6.7
2018-05-02T05:22:00.423Z,6.7
2018-05-02T05:22:59.764Z,6.7
2018-05-02T05:23:30.432Z,6.7
2018-05-02T05:24:01.082Z,6.7
2018-05-02T05:24:31.623Z,6.7
2018-05-02T05:25:57.232Z,6.7
2018-05-02T05:26:55.948Z,6.8
2018-05-02T05:27:54.953Z,6.8
2018-05-02T05:28:54.185Z,6.8
2018-05-02T05:29:53.410Z,6.8
2018-05-02T05:30:52.527Z,6.8
2018-05-02T05:31:51.353Z,6.8
2018-05-02T05:32:50.799Z,6.8
2018-05-02T05:33:20.843Z,6.8
2018-05-02T05:33:51.599Z,6.9
2018-05-02T05:34:22.250Z,6.9
2018-05-02T05:35:48.048Z,7
2018-05-02T05:37:47.004Z,7
2018-05-02T05:40:43.374Z,7.1
2018-05-02T05:41:42.777Z,7.1
2018-05-02T05:42:41.607Z,7.2
2018-05-02T05:43:41.858Z,7.2
2018-05-02T05:44:39.788Z,7.2
2018-05-02T05:45:39.115Z,7.2
2018-05-02T05:46:38.046Z,7.3
2018-05-02T05:48:36.265Z,7.3
2018-05-02T05:50:34.374Z,7.3
2018-05-02T05:51:33.704Z,7.3
2018-05-02T05:52:32.534Z,7.4
2018-05-02T05:53:31.754Z,7.4
2018-05-02T05:54:32.343Z,7.5
2018-05-02T05:55:30.070Z,7.5
2018-05-02T05:56:29.293Z,7.5
2018-05-02T05:57:28.014Z,7.5
2018-05-02T05:59:26.748Z,7.6
2018-05-02T06:02:23.626Z,7.7
2018-05-02T06:03:22.959Z,7.7
2018-05-02T06:04:22.185Z,7.7
2018-05-02T06:04:52.825Z,7.7
2018-05-02T06:06:20.335Z,7.8
2018-05-02T06:07:19.466Z,7.8
2018-05-02T06:08:18.691Z,7.8
2018-05-02T06:09:17.526Z,7.9
2018-05-02T06:10:16.867Z,7.9
2018-05-02T06:11:16.099Z,8
2018-05-02T06:12:15.043Z,8
2018-05-02T06:13:13.980Z,8.1
2018-05-02T06:14:13.429Z,8.1
2018-05-02T06:15:12.364Z,8.1
2018-05-02T06:15:43.016Z,8.1
2018-05-02T06:16:13.160Z,8.1
2018-05-02T06:16:43.928Z,8.1
2018-05-02T06:17:13.971Z,8.2
2018-05-02T06:18:09.795Z,8.2
2018-05-02T06:19:08.731Z,8.2
2018-05-02T06:20:08.181Z,8.3
2018-05-02T06:23:05.284Z,8.4
2018-05-02T06:25:03.196Z,8.5
2018-05-02T06:26:02.320Z,8.5
2018-05-02T06:27:01.593Z,8.5
2018-05-02T06:28:01.041Z,8.5
2018-05-02T06:29:00.245Z,8.6
2018-05-02T06:30:58.460Z,8.6
2018-05-02T06:31:57.515Z,8.6
2018-05-02T06:34:54.604Z,8.7
2018-05-02T06:35:53.943Z,8.7
2018-05-02T06:36:53.292Z,8.8
2018-05-02T06:37:53.059Z,8.8
2018-05-02T06:38:51.275Z,8.8
2018-05-02T06:39:50.502Z,8.9
2018-05-02T06:41:48.836Z,9
2018-05-02T06:42:47.447Z,9
2018-05-02T06:43:46.777Z,9.1
2018-05-02T06:44:45.999Z,9.1
2018-05-02T06:45:45.339Z,9.1
2018-05-02T06:46:44.174Z,9.2
2018-05-02T06:47:43.637Z,9.2
2018-05-02T06:49:41.864Z,9.2
2018-05-02T06:50:40.696Z,9.2
2018-05-02T06:52:38.804Z,9.3
2018-05-02T06:53:38.026Z,9.3
2018-05-02T06:54:37.686Z,9.4
2018-05-02T06:55:36.515Z,9.4
2018-05-02T06:56:35.858Z,9.4
2018-05-02T06:57:34.599Z,9.5
2018-05-02T06:58:34.044Z,9.5
2018-05-02T07:00:32.053Z,9.6
2018-05-02T07:01:31.394Z,9.6
2018-05-02T07:02:30.619Z,9.7
2018-05-02T07:03:29.337Z,9.7
2018-05-02T07:04:28.572Z,9.7
2018-05-02T07:06:27.365Z,9.8
2018-05-02T07:07:26.206Z,9.8
2018-05-02T07:09:24.425Z,9.9
2018-05-02T07:11:23.157Z,10
2018-05-02T07:12:21.990Z,10
2018-05-02T07:13:21.333Z,10
2018-05-02T07:14:20.064Z,10
2018-05-02T07:15:19.408Z,10
2018-05-02T07:17:17.649Z,10.1
2018-05-02T07:18:16.989Z,10.1
2018-05-02T07:19:16.321Z,10.1
2018-05-02T07:20:15.257Z,10.1
2018-05-02T07:21:14.380Z,10.1
2018-05-02T07:23:12.714Z,10.1
2018-05-02T07:24:11.540Z,10.1
2018-05-02T07:25:10.770Z,10.2
2018-05-02T07:26:10.099Z,10.2
2018-05-02T07:27:09.436Z,10.2
2018-05-02T07:28:08.159Z,10.1
2018-05-02T07:29:07.494Z,10.1
2018-05-02T07:30:06.509Z,10.2
2018-05-02T07:31:05.844Z,10.2
2018-05-02T07:32:05.182Z,10.2
2018-05-02T07:33:04.959Z,10.2
2018-05-02T07:34:03.067Z,10.2
2018-05-02T07:36:01.675Z,10.3
2018-05-02T07:37:00.897Z,10.3
2018-05-02T07:38:00.232Z,10.3
2018-05-02T07:39:58.338Z,10.3
2018-05-02T07:41:56.499Z,10.4
2018-05-02T07:43:55.230Z,10.4
2018-05-02T07:44:54.131Z,10.4
2018-05-02T07:45:53.573Z,10.4
2018-05-02T07:47:51.669Z,10.5
2018-05-02T07:48:50.784Z,10.5
2018-05-02T07:49:50.224Z,10.5
2018-05-02T07:50:48.836Z,10.5
2018-05-02T07:51:48.077Z,10.5
2018-05-02T07:52:47.429Z,10.5
2018-05-02T07:53:46.557Z,10.5
2018-05-02T07:54:45.909Z,10.5
2018-05-02T07:55:16.747Z,10.5
2018-05-02T07:55:46.776Z,10.5
2018-05-02T07:56:44.498Z,10.6
2018-05-02T07:57:43.331Z,10.6
2018-05-02T07:59:41.440Z,10.7
2018-05-02T08:00:40.776Z,10.7
2018-05-02T08:01:40.007Z,10.7
2018-05-02T08:04:37.716Z,10.7
2018-05-02T08:05:36.633Z,10.7
2018-05-02T08:07:34.848Z,10.7
2018-05-02T08:08:34.078Z,10.7
2018-05-02T08:09:33.200Z,10.7
2018-05-02T08:10:32.316Z,10.7
2018-05-02T08:11:31.548Z,10.8
2018-05-02T08:12:30.770Z,10.8
2018-05-02T08:13:30.110Z,10.8
2018-05-02T08:14:29.553Z,10.8
2018-05-02T08:16:28.177Z,10.8
2018-05-02T08:17:26.632Z,10.8
2018-05-02T08:19:25.262Z,10.9
2018-05-02T08:20:24.600Z,10.9
2018-05-02T08:21:23.207Z,10.8
2018-05-02T08:22:22.434Z,10.9
2018-05-02T08:23:21.793Z,10.8
2018-05-02T08:26:19.287Z,10.9
2018-05-02T08:28:17.621Z,11
2018-05-02T08:29:16.856Z,11
2018-05-02T08:29:47.617Z,11
2018-05-02T08:30:18.159Z,11
2018-05-02T08:31:15.597Z,11
2018-05-02T08:32:14.296Z,11
2018-05-02T08:33:13.417Z,11
2018-05-02T08:34:12.753Z,11
2018-05-02T08:35:12.159Z,11
2018-05-02T08:37:10.356Z,11
2018-05-02T08:38:09.576Z,11
2018-05-02T08:39:08.800Z,10.9
2018-05-02T08:40:08.036Z,10.9
2018-05-02T08:41:06.774Z,10.9
2018-05-02T08:42:05.671Z,10.9
2018-05-02T08:43:05.514Z,10.9
2018-05-02T08:44:04.853Z,10.9
2018-05-02T08:45:03.400Z,10.9
2018-05-02T08:46:03.033Z,10.9
2018-05-02T08:47:02.158Z,10.9
2018-05-02T08:48:01.407Z,10.9
2018-05-02T08:50:00.351Z,10.9
2018-05-02T08:50:59.007Z,10.9
2018-05-02T08:51:57.942Z,10.9
2018-05-02T08:52:56.949Z,10.9
2018-05-02T08:53:56.414Z,10.9
2018-05-02T08:55:54.953Z,10.9
2018-05-02T08:56:54.183Z,10.8
2018-05-02T08:57:53.028Z,10.9
2018-05-02T08:58:52.365Z,10.8
2018-05-02T09:00:50.468Z,10.8
2018-05-02T09:01:50.147Z,10.9
2018-05-02T09:03:49.107Z,10.9
2018-05-02T09:04:47.360Z,10.9
2018-05-02T09:05:46.593Z,10.9
2018-05-02T09:06:45.815Z,10.9
2018-05-02T09:07:45.257Z,10.9
2018-05-02T09:08:44.190Z,10.9
2018-05-02T09:10:42.417Z,10.9
2018-05-02T09:11:41.644Z,11
2018-05-02T09:14:39.264Z,10.9
2018-05-02T09:15:38.745Z,11
2018-05-02T09:16:37.900Z,11
2018-05-02T09:17:36.723Z,11
2018-05-02T09:18:35.845Z,11
2018-05-02T09:19:35.287Z,11
2018-05-02T09:20:34.508Z,11.1
2018-05-02T09:21:33.733Z,11
2018-05-02T09:22:32.455Z,11.1
2018-05-02T09:23:31.899Z,11.1
2018-05-02T09:24:31.352Z,11.1
2018-05-02T09:25:30.087Z,11.1
2018-05-02T09:26:29.423Z,11.1
2018-05-02T09:27:28.757Z,11.1
2018-05-02T09:28:28.090Z,11.1
2018-05-02T09:29:26.832Z,11
2018-05-02T09:29:57.264Z,11
2018-05-02T09:31:25.293Z,11
2018-05-02T09:32:24.644Z,11
2018-05-02T09:33:23.986Z,11.1
2018-05-02T09:34:22.819Z,11.1
2018-05-02T09:35:22.258Z,11.1
2018-05-02T09:36:21.585Z,11.1
2018-05-02T09:37:20.435Z,11.1
2018-05-02T09:39:19.437Z,11.2
2018-05-02T09:39:49.670Z,11.2
2018-05-02T09:40:19.816Z,11.2
2018-05-02T09:40:50.248Z,11.2
2018-05-02T09:42:16.945Z,11.2
2018-05-02T09:43:15.772Z,11.3
2018-05-02T09:44:15.636Z,11.3
2018-05-02T09:45:13.964Z,11.3
2018-05-02T09:46:13.407Z,11.3
2018-05-02T09:47:12.627Z,11.2
2018-05-02T09:48:11.240Z,11.3
2018-05-02T09:49:11.176Z,11.3
2018-05-02T09:50:10.007Z,11.3
2018-05-02T09:52:08.948Z,11.3
2018-05-02T09:53:07.783Z,11.3
2018-05-02T09:54:06.615Z,11.4
2018-05-02T09:55:06.072Z,11.3
2018-05-02T09:56:05.292Z,11.4
2018-05-02T09:57:04.633Z,11.4
2018-05-02T09:59:02.748Z,11.4
2018-05-02T10:00:02.082Z,11.4
2018-05-02T10:01:01.525Z,11.4
2018-05-02T10:02:59.742Z,11.4
2018-05-02T10:03:58.866Z,11.4
2018-05-02T10:04:57.990Z,11.4
2018-05-02T10:05:57.108Z,11.4
2018-05-02T10:06:56.445Z,11.3
2018-05-02T10:07:55.572Z,11.3
2018-05-02T10:08:54.909Z,11.2
2018-05-02T10:09:53.860Z,11.2
2018-05-02T10:10:52.758Z,11.2
2018-05-02T10:16:48.423Z,11.1
2018-05-02T10:18:46.643Z,11.1
2018-05-02T10:19:45.866Z,11.1
2018-05-02T10:20:45.095Z,11.1
2018-05-02T10:21:44.329Z,11.2
2018-05-02T10:23:42.441Z,11.2
2018-05-02T10:24:41.773Z,11.2
2018-05-02T10:25:41.116Z,11.2
2018-05-02T10:26:40.501Z,11.3
2018-05-02T10:27:39.333Z,11.3
2018-05-02T10:28:38.691Z,11.3
2018-05-02T10:29:38.018Z,11.3
2018-05-02T10:31:36.346Z,11.4
2018-05-02T10:32:35.066Z,11.4
2018-05-02T10:33:34.192Z,11.4
2018-05-02T10:34:33.918Z,11.5
2018-05-02T10:36:32.092Z,11.6
2018-05-02T10:38:30.916Z,11.6
2018-05-02T10:39:29.643Z,11.6
2018-05-02T10:40:29.098Z,11.7
2018-05-02T10:41:28.430Z,11.7
2018-05-02T10:43:26.530Z,11.8
2018-05-02T10:44:25.646Z,11.8
2018-05-02T10:46:24.377Z,11.8
2018-05-02T10:47:23.207Z,11.8
2018-05-02T10:49:21.819Z,11.8
2018-05-02T10:50:21.479Z,11.8
2018-05-02T10:51:20.212Z,11.9
2018-05-02T10:52:19.436Z,11.8
2018-05-02T10:54:17.653Z,11.9
2018-05-02T10:55:17.091Z,11.9
2018-05-02T10:56:16.036Z,12
2018-05-02T10:57:15.141Z,12
2018-05-02T10:58:14.463Z,12
2018-05-02T10:59:13.583Z,12
2018-05-02T11:00:12.808Z,12
2018-05-02T11:02:11.319Z,12.1
2018-05-02T11:03:10.728Z,12.1
2018-05-02T11:05:08.733Z,12.2
2018-05-02T11:07:07.244Z,12.2
2018-05-02T11:07:37.788Z,12.2
2018-05-02T11:08:08.561Z,12.2
2018-05-02T11:09:06.000Z,12.3
2018-05-02T11:10:04.939Z,12.3
2018-05-02T11:11:04.173Z,12.4
2018-05-02T11:12:03.504Z,12.4
2018-05-02T11:13:02.513Z,12.5
2018-05-02T11:14:01.740Z,12.6
2018-05-02T11:15:00.970Z,12.7
2018-05-02T11:16:59.477Z,12.8
2018-05-02T11:17:29.930Z,12.8
2018-05-02T11:18:57.960Z,13
2018-05-02T11:19:57.402Z,13.2
2018-05-02T11:20:56.346Z,13.2
2018-05-02T11:21:55.977Z,13.2
2018-05-02T11:22:54.704Z,13.3
2018-05-02T11:23:54.049Z,13.3
2018-05-02T11:24:53.379Z,13.3
2018-05-02T11:25:52.830Z,13.3
2018-05-02T11:26:51.449Z,13.3
2018-05-02T11:27:50.787Z,13.3
2018-05-02T11:28:50.110Z,13.2
2018-05-02T11:30:48.943Z,13.4
2018-05-02T11:31:47.665Z,13.5
2018-05-02T11:32:47.103Z,13.6
2018-05-02T11:34:45.342Z,13.9
2018-05-02T11:35:44.863Z,14.1
2018-05-02T11:36:44.095Z,14.2
2018-05-02T11:37:43.324Z,14.3
2018-05-02T11:38:42.547Z,14.4
2018-05-02T11:40:41.076Z,14.3
2018-05-02T11:41:39.784Z,14.3
2018-05-02T11:42:39.640Z,14.2
2018-05-02T11:43:38.967Z,14.2
2018-05-02T11:44:37.985Z,14.3
2018-05-02T11:45:37.319Z,14.4
2018-05-02T11:46:36.645Z,14.5
2018-05-02T11:51:32.304Z,14.9
2018-05-02T11:52:32.154Z,14.9
2018-05-02T11:53:31.494Z,15
2018-05-02T11:54:30.825Z,15.1
2018-05-02T11:56:28.752Z,15.3
2018-05-02T11:57:29.702Z,15.5
2018-05-02T11:59:26.789Z,15.7
2018-05-02T12:00:26.123Z,15.9
2018-05-02T12:00:56.882Z,15.9
2018-05-02T12:01:26.809Z,15.9
2018-05-02T12:01:57.456Z,15.9
2018-05-02T12:03:24.139Z,16.1
2018-05-02T12:05:22.260Z,16.3
2018-05-02T12:06:21.266Z,16.3
2018-05-02T12:07:20.985Z,16.3
2018-05-02T12:08:20.201Z,16.3
2018-05-02T12:09:19.543Z,16.4
2018-05-02T12:10:18.883Z,16.5
2018-05-02T12:12:17.612Z,16.8
2018-05-02T12:13:16.853Z,16.8
2018-05-02T12:14:15.960Z,16.8
2018-05-02T12:16:14.573Z,16.4
2018-05-02T12:17:13.914Z,16.4
2018-05-02T12:18:13.426Z,16.5
2018-05-02T12:19:12.666Z,16.7
2018-05-02T12:23:09.561Z,16.8
2018-05-02T12:24:09.188Z,16.7
2018-05-02T12:25:08.517Z,16.7
2018-05-02T12:26:07.639Z,16.7
2018-05-02T12:27:07.272Z,16.7
2018-05-02T12:28:06.400Z,16.8
2018-05-02T12:29:05.628Z,16.7
2018-05-02T12:30:04.858Z,16.6
2018-05-02T12:31:03.869Z,16.6
2018-05-02T12:32:03.713Z,16.5
2018-05-02T12:33:02.934Z,16.6
2018-05-02T12:35:01.768Z,16.6
2018-05-02T12:36:00.986Z,16.5
2018-05-02T12:37:00.430Z,16.6
2018-05-02T12:37:59.863Z,16.7
2018-05-02T12:38:59.190Z,16.8
2018-05-02T12:39:58.309Z,16.9
2018-05-02T12:40:58.074Z,17
2018-05-02T12:41:56.931Z,17.1
2018-05-02T12:42:56.261Z,17.2
2018-05-02T12:43:55.787Z,17.1
2018-05-02T12:45:54.112Z,17.3
2018-05-02T12:46:53.446Z,17.5
2018-05-02T12:47:52.796Z,17.5
2018-05-02T12:48:52.123Z,17.7
2018-05-02T12:50:50.737Z,17.5
2018-05-02T12:51:49.973Z,17.7
2018-05-02T12:53:48.692Z,17.8
2018-05-02T12:54:48.434Z,17.9
2018-05-02T12:55:47.874Z,17.9
2018-05-02T12:56:46.704Z,17.9
2018-05-02T12:57:46.054Z,17.9
2018-05-02T12:59:44.778Z,18.2
2018-05-02T13:00:44.116Z,18.2
2018-05-02T13:01:43.456Z,18.3
2018-05-02T13:02:42.801Z,18.4
2018-05-02T13:03:42.524Z,18.4
2018-05-02T13:05:41.133Z,18.5
2018-05-02T13:06:40.575Z,18.5
2018-05-02T13:07:39.800Z,18.6
2018-05-02T13:08:39.242Z,18.5
2018-05-02T13:09:38.474Z,17.7
2018-05-02T13:10:37.918Z,17.8
2018-05-02T13:11:37.141Z,17.9
2018-05-02T13:12:36.365Z,17.6
2018-05-02T13:14:35.196Z,17.7
2018-05-02T13:15:34.983Z,17.7
2018-05-02T13:16:33.799Z,17.9
2018-05-02T13:17:33.035Z,17.8
2018-05-02T13:18:32.760Z,17.8
2018-05-02T13:19:32.195Z,17.7
2018-05-02T13:20:31.543Z,17.3
2018-05-02T13:21:30.769Z,17.2
2018-05-02T13:23:30.022Z,16.9
2018-05-02T13:24:28.858Z,16.9
2018-05-02T13:25:28.301Z,17
2018-05-02T13:26:27.428Z,17
2018-05-02T13:27:26.560Z,16.9
2018-05-02T13:28:26.179Z,16.9
2018-05-02T13:29:25.507Z,16.7
2018-05-02T13:31:23.908Z,16.5
2018-05-02T13:32:23.740Z,16.6
2018-05-02T13:33:23.809Z,16.6
2018-05-02T13:34:22.428Z,16.6
2018-05-02T13:35:21.659Z,16.5
2018-05-02T13:36:21.488Z,16.5
2018-05-02T13:37:20.734Z,16.6
2018-05-02T13:38:19.937Z,16.6
2018-05-02T13:39:19.275Z,16.2
2018-05-02T13:40:18.398Z,16.1
2018-05-02T13:41:18.249Z,15.9
2018-05-02T13:42:17.464Z,15.8
2018-05-02T13:44:16.081Z,15.9
2018-05-02T13:45:15.411Z,16
2018-05-02T13:46:14.744Z,16.1
2018-05-02T13:47:13.865Z,15.9
2018-05-02T13:48:13.593Z,16
2018-05-02T13:50:12.509Z,16
2018-05-02T13:51:11.345Z,16
2018-05-02T13:54:09.546Z,16
2018-05-02T13:55:09.033Z,16.1
2018-05-02T13:56:08.219Z,15.9
2018-05-02T13:57:07.543Z,15.9
2018-05-02T13:59:06.230Z,15.7
2018-05-02T14:00:05.561Z,15.7
2018-05-02T14:01:05.017Z,15.6
2018-05-02T14:02:04.239Z,15.7
2018-05-02T14:03:03.575Z,15.6
2018-05-02T14:06:01.584Z,15.7
2018-05-02T14:07:00.908Z,15.8
2018-05-02T14:08:00.363Z,15.7
2018-05-02T14:08:59.481Z,15.7
2018-05-02T14:09:59.205Z,15.8
2018-05-02T14:10:58.547Z,15.8
2018-05-02T14:11:57.994Z,15.8
2018-05-02T14:12:57.121Z,15.8
2018-05-02T14:13:56.444Z,15.8
2018-05-02T14:14:55.776Z,15.8
2018-05-02T14:15:55.450Z,15.8
2018-05-02T14:16:54.165Z,15.7
2018-05-02T14:17:53.515Z,15.7
2018-05-02T14:18:52.966Z,15.6
2018-05-02T14:19:52.187Z,15.6
2018-05-02T14:20:51.424Z,15.5
2018-05-02T14:21:50.762Z,15.6
2018-05-02T14:23:49.620Z,15.7
2018-05-02T14:24:49.361Z,15.7
2018-05-02T14:25:48.086Z,15.8
2018-05-02T14:27:46.901Z,15.8
2018-05-02T14:28:46.237Z,15.7
2018-05-02T14:29:45.462Z,15.7
2018-05-02T14:30:44.701Z,15.7
2018-05-02T14:31:44.141Z,15.6
2018-05-02T14:33:42.866Z,15.6
2018-05-02T14:34:41.996Z,15.6
2018-05-02T14:35:41.333Z,15.7
2018-05-02T14:36:40.658Z,15.7
2018-05-02T14:37:39.782Z,15.7
2018-05-02T14:39:39.013Z,15.6
2018-05-02T14:40:38.125Z,15.6
2018-05-02T14:41:37.137Z,15.6
2018-05-02T14:42:36.759Z,15.6
2018-05-02T14:44:35.617Z,15.7
2018-05-02T14:45:34.455Z,15.7
2018-05-02T14:46:33.784Z,15.7
2018-05-02T14:47:33.015Z,15.7
2018-05-02T14:48:32.635Z,15.8
2018-05-02T14:49:31.864Z,15.8
2018-05-02T14:50:02.307Z,15.8
2018-05-02T14:50:32.956Z,15.7
2018-05-02T14:51:03.492Z,15.7
2018-05-02T14:51:33.930Z,15.8
2018-05-02T14:52:04.720Z,15.8
2018-05-02T14:53:29.210Z,15.8
2018-05-02T14:54:28.901Z,15.8
2018-05-02T14:55:28.043Z,15.8
2018-05-02T14:56:27.381Z,15.7
2018-05-02T14:57:26.604Z,15.6
2018-05-02T14:58:25.940Z,15.6
2018-05-02T14:59:25.292Z,15.6
2018-05-02T15:00:24.405Z,15.6
2018-05-02T15:04:21.689Z,15.4
2018-05-02T15:05:21.014Z,15.4
2018-05-02T15:06:20.448Z,15.4
2018-05-02T15:07:19.783Z,15.5
2018-05-02T15:08:19.783Z,15.5
2018-05-02T15:09:17.998Z,15.5
2018-05-02T15:10:17.329Z,15.5
2018-05-02T15:12:16.058Z,15.6
2018-05-02T15:13:15.406Z,15.6
2018-05-02T15:14:14.739Z,15.6
2018-05-02T15:15:14.100Z,15.6
2018-05-02T15:16:13.330Z,15.6
2018-05-02T15:17:12.783Z,15.6
2018-05-02T15:18:12.114Z,15.6
2018-05-02T15:20:10.831Z,15.6
2018-05-02T15:21:10.054Z,15.7
2018-05-02T15:21:40.597Z,15.7
2018-05-02T15:22:11.246Z,15.7
2018-05-02T15:23:08.565Z,15.7
2018-05-02T15:24:07.685Z,15.7
2018-05-02T15:25:06.915Z,15.8
2018-05-02T15:26:06.256Z,15.8
2018-05-02T15:27:05.706Z,15.8
2018-05-02T15:28:05.052Z,15.8
2018-05-02T15:29:04.168Z,15.9
2018-05-02T15:30:03.184Z,15.9
2018-05-02T15:31:02.817Z,15.9
2018-05-02T15:32:02.267Z,15.9
2018-05-02T15:32:32.805Z,15.9
2018-05-02T15:33:02.969Z,16
2018-05-02T15:33:33.684Z,16
2018-05-02T15:34:03.940Z,16
2018-05-02T15:34:34.088Z,16
2018-05-02T15:35:59.590Z,16.1
2018-05-02T15:36:58.713Z,16.1
2018-05-02T15:37:57.936Z,16.1
2018-05-02T15:38:57.157Z,16.1
2018-05-02T15:41:55.282Z,16.2
2018-05-02T15:42:54.729Z,16.3
2018-05-02T15:43:24.875Z,16.3
2018-05-02T15:43:55.632Z,16.4